Airfield :
LOGIN :

Register | Disclaimer

   EN    FR    IT 

 










Legend :    VFR   Marginal VFR   IFR   Intensive IFR   Very Intensive IFR
Visi :
Ceiling :
>= 8 km
>= 3000ft
5 to 8 km
1000 to 3000 ft
1500m to 5 km
500 to 1000 ft
800 to 1500m
200 to 500 ft
< 800m
< 200 ft
Symbols :   Thunderstorms  Fog  Heavy snow  Heavy precipitations  Wind > 20 kt
SIGMETs :     Misc.  Thunderstorms  Icing  Turbulence  Mountain Waves  Volcanic Ashes







- Airport Elevation : 239 ft
- IATA code : VRN


LIPX - Villafranca Int. Verona

EXPIRED METARs :
  • 241420Z 16005KT 090V210 CAVOK 34/21 Q1013
  • 241350Z 16005KT 110V200 CAVOK 33/21 Q1013
  • 241320Z 14005KT 100V180 CAVOK 33/20 Q1013
  • 241250Z 13005KT 060V160 CAVOK 33/22 Q1013
  • 241220Z 16004KT 110V220 CAVOK 33/21 Q1014
  • 241150Z 16005KT CAVOK 33/21 Q1014

Expired Forecast.
No reported NOTAMs for that airfield.
2 SIGMETs reported for the Milano FIR (LIMM) :
 
Embedded thunderstorms
LIMM SIGMET 4 VALID 250000/250400 LIMM- LIMM MILANO FIR EMBD TS FCST WI N4439 E00705 - N4535 E00744 - N4539 E00853 - N4530 E01001 - N4635 E01027 - N4636 E01009 - N4615 E01006 - N4621 E00954 - N4616 E00930 - N4628 E00926 - N4601 E00903 - N4545 E00859 - N4604 E00847 - N4616 E00827 - N4625 E00823 - N4614 E00809 - N4555 E00753 - N4556 E00720 - N4550 E00648 - N4522 E00711 - N4511 E00653 - N4511 E00636 - N4452 E00650 - N4439 E00705 CB TOP AT FL390 MOV ENE NC=
Embedded thunderstorms
LIMM SIGMET 3 VALID 250000/250400 LIMM- LIMM MILANO FIR EMBD TS OBS N OF LINE N4638 E01016 - N4552 E01332 CB TOP AT FL390 STNR NC=



MET'MAP, your aeronautical weather chart ! - Copyright ORBIFLY December 2007 - Disclaimer

ORBIFLY MET'MAP TEAM :

Programming & Development : Alexandra Zaïnal
Concept & Development : Baudouin d'Aumeries
Co-Development & Prog : Marc-Olivier Méhu
Technical & hardware support : Manuel Goepfert

Contact : metmap@orbifly.com




SOURCES & CREDITS :

   NOAA